This is the latest recevied weather packets stored in our database for station/object KD2FGL-13. If no packets are shown the sender has not sent any weather packets the latest 10 day(s).
| Time | Temp. | Humidity | Pressure | Rain* | Wind** | Luminosity | Snow |
|---|---|---|---|---|---|---|---|
| 1777383590 | 18.89° C | 39% | 1023.2 hPa | 0 mm | - | - | - |
| 1777383285 | 18.33° C | 41% | 1023.2 hPa | 0 mm | - | - | - |
| 1777382981 | 17.78° C | 42% | 1023.4 hPa | 0 mm | - | - | - |
| 1777382677 | 17.22° C | 44% | 1023.4 hPa | 0 mm | - | - | - |
| 1777381158 | 13.33° C | 51% | 1023.5 hPa | 0 mm | - | - | - |
| 1777380855 | 12.78° C | 51% | 1023.6 hPa | 0 mm | - | - | - |
| 1777380550 | 12.22° C | 51% | 1023.5 hPa | 0 mm | - | - | - |
| 1777380245 | 12.22° C | 51% | 1023.7 hPa | 0 mm | - | - | - |
| 1777379334 | 11.67° C | 52% | 1023.8 hPa | 0 mm | - | - | - |
| 1777378119 | 10.56° C | 53% | 1024 hPa | 0 mm | - | - | - |
| 1777376903 | 10° C | 54% | 1024.3 hPa | 0 mm | - | - | - |
| 1777375991 | 9.44° C | 55% | 1024.2 hPa | 0 mm | - | - | - |
| 1777375688 | 9.44° C | 56% | 1024.1 hPa | 0 mm | - | - | - |
| 1777373863 | 7.22° C | 59% | 1024.2 hPa | 0 mm | - | - | - |
| 1777373559 | 6.67° C | 59% | 1024.2 hPa | 0 mm | - | - | - |
| 1777372951 | 6.67° C | 60% | 1024.2 hPa | 0 mm | - | - | - |
| 1777372345 | 6.11° C | 60% | 1024.3 hPa | 0 mm | - | - | - |
| 1777371432 | 6.11° C | 60% | 1024.4 hPa | 0 mm | - | - | - |
| 1777370521 | 6.11° C | 60% | 1024.4 hPa | 0 mm | - | - | - |
| 1777370216 | 6.11° C | 60% | 1024.4 hPa | 0 mm | - | - | - |
| 1777369608 | 6.11° C | 60% | 1024.3 hPa | 0 mm | - | - | - |
| 1777368393 | 6.67° C | 59% | 1024.4 hPa | 0 mm | - | - | - |
| 1777366266 | 7.22° C | 58% | 1024.5 hPa | 0 mm | - | - | - |
| 1777364441 | 7.22° C | 58% | 1024.7 hPa | 0 mm | - | - | - |
| 1777363227 | 7.78° C | 57% | 1024.6 hPa | 0 mm | - | - | - |
* Rain since midnight (hover to see other rain measurements)
** Current wind speed in m/s (hover to see current wind gust speed)